Time;durP1;ratioP1;P1;durP2;ratioP2;P2;SDS_P1;SDS_P2;PMS_P1;PMS_P2;Temp;Humidity;BMP_temperature;BMP_pressure;BME280_temperature;BME280_humidity;BME280_pressure;Samples;Min_cycle;Max_cycle;Signal;HPM_P1;HPM_P2
2023/07/06 00:46:29;;;;;;;;;;;;;;;19.58;74.67;99988.63;6211775;23;19924;-90
2023/07/06 00:48:56;;;;;;;;;;;;;;;19.60;74.28;99993.78;6188824;23;20318;-88
2023/07/06 00:51:33;;;;;;;;;;;;;;;19.60;73.96;99997.41;6190312;23;20017;-87
2023/07/06 00:54:05;;;;;;;;;;;;;;;19.58;74.57;99996.13;6140768;23;19920;-85
2023/07/06 00:56:36;;;;;;;;;;;;;;;19.51;74.97;99994.00;6216164;23;19916;-89
2023/07/06 00:59:05;;;;;;;;;;;;;;;19.57;74.84;99992.56;6189788;23;20345;-88
2023/07/06 01:01:35;;;;;;;;;;;;;;;19.59;74.75;100001.31;6164083;23;19951;-88
2023/07/06 01:04:01;;;;;;;;;;;;;;;19.58;74.70;99994.16;6139894;23;19924;-87
2023/07/06 01:06:30;;;;;;;;;;;;;;;19.57;74.89;99998.13;6217047;23;19915;-88
2023/07/06 01:08:57;;;;;;;;;;;;;;;19.59;74.88;99987.44;6165879;23;19943;-86
2023/07/06 01:11:23;;;;;;;;;;;;;;;19.64;74.68;100001.09;6216558;23;19993;-86
2023/07/06 01:13:50;;;;;;;;;;;;;;;19.65;74.74;99988.81;6216730;23;19916;-88
2023/07/06 01:16:18;;;;;;;;;;;;;;;19.65;74.53;99994.38;6165434;23;20342;-90
2023/07/06 01:19:03;;;;;;;;;;;;;;;19.62;74.48;99994.25;6165906;23;19922;-89
2023/07/06 01:21:31;;;;;;;;;;;;;;;19.61;74.82;99996.22;6141080;23;19926;-88
2023/07/06 01:24:05;;;;;;;;;;;;;;;19.61;74.38;99995.44;6190969;23;19981;-86
2023/07/06 01:26:37;;;;;;;;;;;;;;;19.55;74.00;99996.84;6190136;23;19942;-88
2023/07/06 01:29:05;;;;;;;;;;;;;;;19.56;73.97;99990.13;6189718;23;19947;-86
2023/07/06 01:31:44;;;;;;;;;;;;;;;19.51;73.91;99985.66;6190069;23;19920;-90
2023/07/06 01:34:14;;;;;;;;;;;;;;;19.48;73.94;99991.94;6166408;23;19926;-88
2023/07/06 01:36:46;;;;;;;;;;;;;;;19.42;74.11;99990.56;6191587;23;19929;-92
2023/07/06 01:39:20;;;;;;;;;;;;;;;19.30;74.14;100001.72;6190634;23;19920;-88
2023/07/06 01:41:47;;;;;;;;;;;;;;;19.24;74.30;99990.09;6166422;23;19919;-89
2023/07/06 01:44:15;;;;;;;;;;;;;;;19.20;74.84;100001.09;6189549;23;19924;-90
2023/07/06 01:46:53;;;;;;;;;;;;;;;19.18;74.97;99997.06;6195314;23;19920;-89
2023/07/06 01:49:19;;;;;;;;;;;;;;;19.14;74.87;99999.75;6168615;23;19930;-89
2023/07/06 01:51:51;;;;;;;;;;;;;;;19.05;75.47;100003.81;6192321;23;19908;-89
2023/07/06 01:54:20;;;;;;;;;;;;;;;19.01;75.71;100006.50;6167110;23;19915;-92
2023/07/06 01:56:58;;;;;;;;;;;;;;;19.04;75.66;100008.56;6183018;23;19915;-90
2023/07/06 01:59:29;;;;;;;;;;;;;;;19.08;75.83;100005.91;6234110;23;19947;-89
2023/07/06 02:02:07;;;;;;;;;;;;;;;19.09;75.60;100011.06;6181799;23;19920;-91
2023/07/06 02:04:34;;;;;;;;;;;;;;;19.12;75.79;100006.78;6168676;23;19919;-90
2023/07/06 02:07:05;;;;;;;;;;;;;;;19.13;75.99;100016.72;6164946;23;19931;-90
2023/07/06 02:09:30;;;;;;;;;;;;;;;19.14;75.97;100010.00;6141618;23;19935;-92
2023/07/06 02:11:57;;;;;;;;;;;;;;;19.18;75.91;100008.97;6170418;23;19946;-91
2023/07/06 02:14:23;;;;;;;;;;;;;;;19.20;75.88;100012.19;6192640;23;19943;-92
2023/07/06 02:16:52;;;;;;;;;;;;;;;19.23;75.92;100010.66;6142501;23;19931;-90
2023/07/06 02:19:20;;;;;;;;;;;;;;;19.24;75.94;100013.09;6209410;23;19937;-89
2023/07/06 02:21:48;;;;;;;;;;;;;;;19.30;76.04;100013.63;6212624;23;19904;-89
2023/07/06 02:24:14;;;;;;;;;;;;;;;19.32;75.82;100019.63;6214850;23;19955;-90
2023/07/06 02:26:39;;;;;;;;;;;;;;;19.35;76.07;100018.91;6177271;23;19972;-92
2023/07/06 02:29:05;;;;;;;;;;;;;;;19.34;76.09;100019.28;6190931;23;19927;-89
2023/07/06 02:31:31;;;;;;;;;;;;;;;19.39;76.32;100022.59;6167457;23;19926;-90
2023/07/06 02:33:56;;;;;;;;;;;;;;;19.39;76.49;100017.03;6191007;23;20324;-91
2023/07/06 02:36:22;;;;;;;;;;;;;;;19.44;76.56;100016.78;6190840;23;20348;-91
2023/07/06 02:38:48;;;;;;;;;;;;;;;19.54;76.30;100017.44;6164662;23;19920;-89
2023/07/06 02:41:14;;;;;;;;;;;;;;;19.61;76.39;100023.16;6164797;23;19948;-89
2023/07/06 02:43:40;;;;;;;;;;;;;;;;;;6140704;23;19960;-90
2023/07/06 02:46:06;;;;;;;;;;;;;;;19.75;76.33;100015.22;6138853;23;20310;-88
2023/07/06 02:48:32;;;;;;;;;;;;;;;19.81;76.37;100029.66;6189346;23;19943;-92
2023/07/06 02:50:58;;;;;;;;;;;;;;;19.89;76.12;100021.13;6192703;23;19962;-89
2023/07/06 02:53:23;;;;;;;;;;;;;;;20.00;75.76;100026.13;6141617;23;19928;-89
2023/07/06 02:55:51;;;;;;;;;;;;;;;20.09;75.64;100026.75;6166285;23;19924;-90
2023/07/06 02:58:18;;;;;;;;;;;;;;;20.16;75.71;100026.94;6166241;23;20300;-88
2023/07/06 03:00:46;;;;;;;;;;;;;;;20.21;75.83;100029.44;6191710;23;19930;-90
2023/07/06 03:03:12;;;;;;;;;;;;;;;20.24;75.24;100020.41;6192679;23;19926;-90
2023/07/06 03:05:38;;;;;;;;;;;;;;;20.30;74.82;100027.28;6167021;23;19959;-90
2023/07/06 03:08:05;;;;;;;;;;;;;;;20.35;74.84;100029.75;6166665;23;20368;-88
2023/07/06 03:10:32;;;;;;;;;;;;;;;20.41;74.76;100024.75;6167815;23;19927;-88
2023/07/06 03:12:59;;;;;;;;;;;;;;;20.48;74.70;100026.88;6167715;23;19920;-91
2023/07/06 03:15:25;;;;;;;;;;;;;;;20.55;74.70;100035.41;6166316;23;19989;-89
2023/07/06 03:17:51;;;;;;;;;;;;;;;20.59;74.54;100034.31;6169261;23;19900;-89
2023/07/06 03:20:21;;;;;;;;;;;;;;;20.67;74.69;100040.03;6194257;23;19910;-88
2023/07/06 03:22:48;;;;;;;;;;;;;;;20.72;74.58;100039.75;6207629;23;19943;-89
2023/07/06 03:25:15;;;;;;;;;;;;;;;20.76;74.65;100041.44;6178716;23;19920;-88
2023/07/06 03:27:41;;;;;;;;;;;;;;;20.80;75.27;100047.88;6167456;23;19920;-90
2023/07/06 03:30:09;;;;;;;;;;;;;;;20.85;75.22;100049.56;6193091;23;19919;-90
2023/07/06 03:32:37;;;;;;;;;;;;;;;20.90;75.30;100046.50;6218767;23;19920;-89
2023/07/06 03:35:04;;;;;;;;;;;;;;;20.97;75.38;100041.09;6191239;23;19939;-88
2023/07/06 03:37:29;;;;;;;;;;;;;;;21.05;74.75;100045.59;6191545;23;19926;-89
2023/07/06 03:39:55;;;;;;;;;;;;;;;21.05;74.66;100042.81;6191648;23;19924;-87
2023/07/06 03:42:21;;;;;;;;;;;;;;;21.10;74.68;100042.53;6192103;23;19955;-87
2023/07/06 03:44:47;;;;;;;;;;;;;;;21.15;73.94;100044.22;6187493;23;20018;-87
2023/07/06 03:47:14;;;;;;;;;;;;;;;21.21;73.68;100039.16;6164278;23;19994;-88
2023/07/06 03:49:41;;;;;;;;;;;;;;;21.24;72.90;100035.66;6152557;23;19921;-88
2023/07/06 03:52:07;;;;;;;;;;;;;;;21.28;72.75;100039.31;6164841;23;19920;-86
2023/07/06 03:54:34;;;;;;;;;;;;;;;21.32;72.75;100038.22;6191026;23;19920;-86
2023/07/06 03:57:05;;;;;;;;;;;;;;;21.42;73.18;100047.16;6191957;23;20396;-90
2023/07/06 03:59:33;;;;;;;;;;;;;;;21.48;73.41;100032.56;6165714;23;20228;-88
2023/07/06 04:01:59;;;;;;;;;;;;;;;21.55;72.56;100043.03;6190492;23;19920;-89
2023/07/06 04:04:28;;;;;;;;;;;;;;;21.65;72.28;100036.03;6167777;23;19940;-88
2023/07/06 04:06:55;;;;;;;;;;;;;;;21.69;71.65;100034.13;6168277;23;20033;-90
2023/07/06 04:09:21;;;;;;;;;;;;;;;21.72;71.29;100036.16;6164208;23;19924;-88
2023/07/06 04:11:47;;;;;;;;;;;;;;;21.77;71.40;100030.31;6188303;23;20270;-88
2023/07/06 04:14:13;;;;;;;;;;;;;;;21.85;71.18;100017.31;6144292;23;19927;-88
2023/07/06 04:16:40;;;;;;;;;;;;;;;21.90;70.91;100019.78;6188747;23;19924;-88
2023/07/06 04:19:10;;;;;;;;;;;;;;;21.98;71.46;100024.28;6192994;23;19987;-90
2023/07/06 04:21:36;;;;;;;;;;;;;;;22.05;71.56;100016.88;6142268;23;19927;-88
2023/07/06 04:24:04;;;;;;;;;;;;;;;22.15;71.31;100025.75;6139657;23;19967;-89
2023/07/06 04:26:30;;;;;;;;;;;;;;;22.19;71.42;100029.44;6181510;23;19931;-88
2023/07/06 04:28:57;;;;;;;;;;;;;;;22.27;71.72;100029.16;6207446;23;19921;-88
2023/07/06 04:31:23;;;;;;;;;;;;;;;22.37;71.16;100027.72;6169607;23;19931;-89
2023/07/06 04:33:49;;;;;;;;;;;;;;;22.48;71.31;100028.69;6167551;23;19968;-88
2023/07/06 04:36:17;;;;;;;;;;;;;;;22.58;70.29;100032.78;6192834;23;20373;-91
2023/07/06 04:38:43;;;;;;;;;;;;;;;22.65;70.32;100032.91;6141699;23;19920;-87
2023/07/06 04:41:27;;;;;;;;;;;;;;;22.73;69.28;100031.81;6162246;23;19967;-89
2023/07/06 04:44:02;;;;;;;;;;;;;;;22.82;69.59;100041.91;6118900;23;19924;-88
2023/07/06 04:46:29;;;;;;;;;;;;;;;22.86;69.30;100043.53;6193365;23;19991;-89
2023/07/06 04:48:54;;;;;;;;;;;;;;;22.92;69.31;100044.81;6170208;23;20007;-90
2023/07/06 04:51:20;;;;;;;;;;;;;;;22.92;69.01;100038.44;6189502;23;19916;-89
2023/07/06 04:53:48;;;;;;;;;;;;;;;23.02;69.41;100045.38;6190891;23;19927;-88
2023/07/06 04:56:14;;;;;;;;;;;;;;;23.11;69.04;100049.47;6194830;23;20113;-88
2023/07/06 04:58:41;;;;;;;;;;;;;;;23.18;69.47;100043.19;6166698;23;19955;-89
2023/07/06 05:01:08;;;;;;;;;;;;;;;23.19;69.10;100040.00;6166834;23;19927;-88
2023/07/06 05:03:36;;;;;;;;;;;;;;;23.29;68.46;100040.50;6189677;23;20475;-87
2023/07/06 05:06:15;;;;;;;;;;;;;;;23.36;68.98;100038.59;6173424;23;19920;-89
2023/07/06 05:08:43;;;;;;;;;;;;;;;23.41;68.31;100034.63;6116667;23;19924;-88
2023/07/06 05:11:09;;;;;;;;;;;;;;;23.47;68.66;100035.91;6192181;23;19920;-91
2023/07/06 05:13:35;;;;;;;;;;;;;;;23.55;67.99;100032.00;6138767;23;20103;-90
2023/07/06 05:16:02;;;;;;;;;;;;;;;23.64;68.31;100029.72;6164664;23;19920;-90
2023/07/06 05:18:29;;;;;;;;;;;;;;;23.75;68.66;100035.44;6164001;23;20003;-90
2023/07/06 05:20:57;;;;;;;;;;;;;;;23.82;68.21;100037.47;6161844;23;19931;-90
2023/07/06 05:23:28;;;;;;;;;;;;;;;23.90;68.74;100036.34;6163452;23;19920;-90
2023/07/06 05:25:55;;;;;;;;;;;;;;;24.00;68.32;100027.25;6162562;23;20342;-90
2023/07/06 05:28:21;;;;;;;;;;;;;;;24.07;67.68;100024.53;6162854;23;19920;-89
2023/07/06 05:30:47;;;;;;;;;;;;;;;24.17;66.95;100031.38;6187138;23;19959;-90
2023/07/06 05:33:13;;;;;;;;;;;;;;;24.20;67.35;100036.19;6137406;23;19924;-87
2023/07/06 05:35:40;;;;;;;;;;;;;;;24.28;66.07;100031.47;6183995;23;20003;-88
2023/07/06 05:38:10;;;;;;;;;;;;;;;24.34;65.94;100029.91;6164224;23;19995;-89
2023/07/06 05:40:36;;;;;;;;;;;;;;;24.44;66.52;100034.81;6145436;23;19920;-90
2023/07/06 05:43:19;;;;;;;;;;;;;;;24.44;65.16;100025.63;6163803;23;20299;-89
2023/07/06 05:45:47;;;;;;;;;;;;;;;24.49;64.76;100020.44;6166601;23;19944;-89
2023/07/06 05:48:13;;;;;;;;;;;;;;;24.56;65.56;100019.69;6145265;23;19924;-89
2023/07/06 05:50:40;;;;;;;;;;;;;;;24.61;64.40;100022.13;6166823;23;19920;-89
2023/07/06 05:53:08;;;;;;;;;;;;;;;24.64;63.44;100023.34;6101832;23;19921;-90
2023/07/06 05:55:35;;;;;;;;;;;;;;;24.75;64.02;100018.59;6105491;23;19928;-91
2023/07/06 05:58:02;;;;;;;;;;;;;;;24.85;64.31;100010.25;6106084;23;19947;-90
2023/07/06 06:00:36;;;;;;;;;;;;;;;24.97;63.08;100009.13;6109791;23;19924;-90
2023/07/06 06:03:06;;;;;;;;;;;;;;;25.07;60.80;100011.16;6109757;23;20007;-93
2023/07/06 06:05:39;;;;;;;;;;;;;;;25.10;61.26;100012.38;6134862;23;19921;-92
2023/07/06 06:08:06;;;;;;;;;;;;;;;25.14;60.05;100013.19;6112863;23;19921;-94
2023/07/06 06:10:33;;;;;;;;;;;;;;;25.15;58.24;100009.19;6112651;23;19929;-92
2023/07/06 06:13:01;;;;;;;;;;;;;;;25.21;57.02;100021.59;6113336;23;19928;-93
2023/07/06 06:15:27;;;;;;;;;;;;;;;25.30;57.88;100016.44;6113019;23;19972;-93
2023/07/06 06:18:16;;;;;;;;;;;;;;;25.26;58.53;99998.81;6088468;23;19925;-93
2023/07/06 06:25:27;;;;;;;;;;;;;;;25.42;55.01;100008.84;6192102;23;20270;-92
2023/07/06 06:31:58;;;;;;;;;;;;;;;25.67;55.00;100015.31;6026235;23;19971;-94
2023/07/06 06:35:03;;;;;;;;;;;;;;;25.78;55.26;100016.09;6001297;23;19929;-92
2023/07/06 06:37:29;;;;;;;;;;;;;;;25.83;54.40;100012.16;5991490;23;19963;-93
2023/07/06 06:39:59;;;;;;;;;;;;;;;25.87;54.42;100014.94;5970229;23;19945;-89
2023/07/06 06:42:28;;;;;;;;;;;;;;;25.92;54.71;100017.34;5990181;23;20363;-93
2023/07/06 06:44:57;;;;;;;;;;;;;;;25.91;52.94;100010.94;5936869;24;19926;-90
2023/07/06 06:47:23;;;;;;;;;;;;;;;25.97;53.35;100019.75;5941857;24;20345;-92
2023/07/06 06:49:49;;;;;;;;;;;;;;;26.04;52.86;100018.94;5922561;24;19923;-93
2023/07/06 06:52:16;;;;;;;;;;;;;;;26.11;52.82;100014.13;5945651;24;20477;-91
2023/07/06 06:54:43;;;;;;;;;;;;;;;26.18;51.80;100032.94;5934336;24;19954;-90
2023/07/06 06:57:09;;;;;;;;;;;;;;;26.19;51.11;100023.31;5979379;24;19910;-93
2023/07/06 06:59:35;;;;;;;;;;;;;;;26.11;50.66;100024.53;5929957;24;19938;-92
2023/07/06 07:02:06;;;;;;;;;;;;;;;26.14;51.14;100023.75;5996859;23;19922;-89
2023/07/06 07:04:33;;;;;;;;;;;;;;;26.05;50.51;100034.56;6032401;23;19926;-91
2023/07/06 07:07:22;;;;;;;;;;;;;;;26.09;51.11;100035.34;6036077;23;19925;-95
2023/07/06 07:09:51;;;;;;;;;;;;;;;26.15;51.07;100033.75;6008747;23;19929;-91
2023/07/06 07:12:27;;;;;;;;;;;;;;;26.20;51.03;100041.75;6056408;23;20032;-94
2023/07/06 07:18:29;;;;;;;;;;;;;;;26.32;51.10;100044.13;6115947;23;19905;-91
2023/07/06 07:21:22;;;;;;;;;;;;;;;26.44;51.91;100046.53;6084777;23;19921;-95
2023/07/06 07:23:50;;;;;;;;;;;;;;;26.53;51.35;100039.75;6060841;23;19925;-89
2023/07/06 07:26:27;;;;;;;;;;;;;;;26.50;48.71;100041.34;6073336;23;19995;-87
2023/07/06 07:32:50;;;;;;;;;;;;;;;26.32;50.92;100049.75;6194992;22;19952;-92
2023/07/06 07:35:47;;;;;;;;;;;;;;;26.25;50.69;100053.34;6114338;23;20035;-91
2023/07/06 07:38:16;;;;;;;;;;;;;;;26.28;49.82;100051.75;6114465;23;19943;-94
2023/07/06 07:55:48;;;;;;;;;;;;;;;26.97;46.90;100056.03;5999873;23;3401105;-89
2023/07/06 08:11:46;;;;;;;;;;;;;;;27.49;46.52;100047.00;6180161;23;21167;-92
2023/07/06 08:18:07;;;;;;;;;;;;;;;27.57;46.61;100056.97;6169930;23;19948;-90
2023/07/06 08:23:50;;;;;;;;;;;;;;;27.53;46.94;100044.97;6075375;23;19925;-86
2023/07/06 08:26:16;;;;;;;;;;;;;;;27.63;47.09;100053.31;6073433;23;19921;-87
2023/07/06 08:28:46;;;;;;;;;;;;;;;27.68;46.99;100046.44;6098463;23;19922;-84
2023/07/06 08:31:56;;;;;;;;;;;;;;;27.41;46.18;100052.63;6068822;23;19928;-88
2023/07/06 08:37:42;;;;;;;;;;;;;;;27.41;47.12;100043.41;6191712;23;19928;-87
2023/07/06 08:40:10;;;;;;;;;;;;;;;27.43;46.64;100043.03;6138893;23;19920;-89
2023/07/06 08:43:02;;;;;;;;;;;;;;;27.48;46.70;100042.56;6163618;23;19920;-90
2023/07/06 08:45:39;;;;;;;;;;;;;;;27.47;46.05;100049.41;6165567;23;19967;-88
2023/07/06 08:48:12;;;;;;;;;;;;;;;27.50;47.30;100038.16;6147352;23;19943;-92
2023/07/06 08:50:40;;;;;;;;;;;;;;;27.59;46.25;100046.13;6170271;23;19943;-89
2023/07/06 08:53:11;;;;;;;;;;;;;;;27.60;46.73;100028.06;6150554;23;19923;-90
2023/07/06 08:55:37;;;;;;;;;;;;;;;27.71;45.83;100037.19;6197022;23;20631;-90
2023/07/06 08:58:04;;;;;;;;;;;;;;;27.78;45.69;100022.34;6121251;23;19963;-90
2023/07/06 09:00:35;;;;;;;;;;;;;;;27.84;45.98;100029.91;6121035;23;19927;-90
2023/07/06 09:03:08;;;;;;;;;;;;;;;27.79;45.72;100029.56;6120084;23;19924;-90
2023/07/06 09:05:43;;;;;;;;;;;;;;;27.63;44.86;100028.03;6139397;23;20804;-91
2023/07/06 09:08:13;;;;;;;;;;;;;;;27.59;45.98;100034.91;6149588;23;19927;-90
2023/07/06 09:10:38;;;;;;;;;;;;;;;27.74;46.13;100016.72;6141526;23;19966;-89
2023/07/06 09:13:36;;;;;;;;;;;;;;;27.87;46.42;100019.84;6196834;23;19928;-90
2023/07/06 09:16:56;;;;;;;;;;;;;;;27.95;44.10;100020.63;6101272;23;20007;-89
2023/07/06 09:19:23;;;;;;;;;;;;;;;28.04;44.08;100013.28;6158891;23;19948;-90
2023/07/06 09:21:53;;;;;;;;;;;;;;;28.14;43.96;100010.78;6161922;23;19948;-88
2023/07/06 09:24:27;;;;;;;;;;;;;;;28.36;45.36;100015.00;6138326;23;19920;-91
2023/07/06 09:27:00;;;;;;;;;;;;;;;28.47;44.11;100007.28;6160480;23;19920;-87
2023/07/06 09:32:54;;;;;;;;;;;;;;;28.76;44.30;100007.75;6168184;23;19916;-86
2023/07/06 09:35:25;;;;;;;;;;;;;;;28.76;42.97;100010.56;6163194;23;19936;-88
2023/07/06 09:37:51;;;;;;;;;;;;;;;28.71;43.16;100008.22;6133630;23;19931;-90
2023/07/06 09:40:19;;;;;;;;;;;;;;;28.64;43.08;100001.88;6161226;23;19920;-88
2023/07/06 09:42:52;;;;;;;;;;;;;;;28.63;44.29;100000.28;6141591;23;19921;-88
2023/07/06 09:45:22;;;;;;;;;;;;;;;28.74;45.01;100004.56;6139850;23;19921;-88
2023/07/06 09:47:54;;;;;;;;;;;;;;;28.69;41.91;99998.59;6141049;23;19976;-90
2023/07/06 10:00:16;;;;;;;;;;;;;;;28.31;45.42;99996.59;6162302;23;19995;-87
2023/07/06 10:03:00;;;;;;;;;;;;;;;28.48;44.55;100000.44;6161280;23;19979;-87
2023/07/06 10:05:45;;;;;;;;;;;;;;;28.64;44.10;99997.03;6161225;23;19952;-85
2023/07/06 10:08:15;;;;;;;;;;;;;;;28.89;44.86;99995.94;6161129;23;20007;-87
2023/07/06 10:11:21;;;;;;;;;;;;;;;28.99;44.28;99989.38;6136498;23;19921;-87
2023/07/06 10:13:53;;;;;;;;;;;;;;;29.06;43.59;99994.16;6065644;23;20240;-87
2023/07/06 10:16:43;;;;;;;;;;;;;;;29.13;43.62;99994.84;6145674;23;19970;-87
2023/07/06 10:19:29;;;;;;;;;;;;;;;29.29;43.65;99991.41;6163148;23;19956;-89
2023/07/06 10:22:06;;;;;;;;;;;;;;;29.49;43.62;99988.69;6135312;23;19920;-88
2023/07/06 10:24:50;;;;;;;;;;;;;;;29.68;42.52;99985.22;6169834;23;19924;-90
2023/07/06 10:27:26;;;;;;;;;;;;;;;29.59;42.07;99979.28;6148981;23;19920;-88
2023/07/06 10:30:02;;;;;;;;;;;;;;;29.73;43.03;99984.72;6169195;23;19921;-88
2023/07/06 10:32:40;;;;;;;;;;;;;;;29.75;40.63;99984.28;6143437;23;19928;-90
2023/07/06 10:35:46;;;;;;;;;;;;;;;29.67;40.06;99991.28;6114227;23;19921;-90
2023/07/06 10:38:14;;;;;;;;;;;;;;;29.72;41.03;99988.75;6082283;23;19926;-88
2023/07/06 10:40:42;;;;;;;;;;;;;;;29.66;39.65;99984.03;6082451;23;19945;-88
2023/07/06 10:43:11;;;;;;;;;;;;;;;29.78;41.01;99985.47;6119542;23;19924;-87
2023/07/06 10:49:48;;;;;;;;;;;;;;;29.52;42.51;99978.59;6174881;23;19944;-87
2023/07/06 10:52:45;;;;;;;;;;;;;;;29.42;41.62;99983.19;6167827;23;19921;-88
2023/07/06 10:55:40;;;;;;;;;;;;;;;29.39;42.80;99978.38;6138226;23;19920;-89
2023/07/06 11:01:28;;;;;;;;;;;;;;;29.18;42.58;99983.13;6158714;23;19924;-89
2023/07/06 11:03:54;;;;;;;;;;;;;;;29.23;42.05;99988.25;6156271;23;20412;-89
2023/07/06 11:09:49;;;;;;;;;;;;;;;29.47;41.86;99974.22;6114935;23;19921;-89
2023/07/06 11:12:19;;;;;;;;;;;;;;;29.67;42.34;99986.44;6159899;23;19921;-89
2023/07/06 11:14:45;;;;;;;;;;;;;;;29.84;43.48;99975.31;6131405;23;20300;-88
2023/07/06 11:17:36;;;;;;;;;;;;;;;29.94;40.65;99968.69;6156754;23;19927;-91
2023/07/06 11:20:30;;;;;;;;;;;;;;;29.88;40.64;99973.22;6162395;23;20359;-91
2023/07/06 11:26:20;;;;;;;;;;;;;;;30.14;41.19;99968.72;6133607;23;19924;-88
2023/07/06 11:28:51;;;;;;;;;;;;;;;30.16;40.05;99967.03;6137914;23;20386;-93
2023/07/06 11:35:07;;;;;;;;;;;;;;;30.29;40.12;99955.97;6134547;23;20024;-92
2023/07/06 11:38:24;;;;;;;;;;;;;;;30.38;39.97;99958.22;6152027;23;19920;-94
2023/07/06 11:41:27;;;;;;;;;;;;;;;30.36;39.58;99955.81;6022653;23;19925;-88
2023/07/06 11:44:45;;;;;;;;;;;;;;;30.48;39.48;99953.59;6129521;23;19935;-93
2023/07/06 11:50:12;;;;;;;;;;;;;;;30.01;39.63;99946.00;6132795;23;20345;-91
2023/07/06 11:52:44;;;;;;;;;;;;;;;29.95;39.72;99939.25;6160629;23;19920;-90
2023/07/06 11:55:39;;;;;;;;;;;;;;;30.22;41.39;99933.53;6142105;23;19924;-90
2023/07/06 11:58:29;;;;;;;;;;;;;;;30.39;39.30;99937.22;6161123;23;19928;-89
2023/07/06 12:00:58;;;;;;;;;;;;;;;30.12;39.86;99929.66;6159022;23;19920;-90
2023/07/06 12:03:26;;;;;;;;;;;;;;;29.95;41.68;99936.44;6107545;23;19924;-87
2023/07/06 12:06:11;;;;;;;;;;;;;;;29.99;41.13;99931.53;6153749;23;19931;-90
2023/07/06 12:08:38;;;;;;;;;;;;;;;30.24;40.70;99933.13;6105070;23;19920;-88
2023/07/06 12:11:15;;;;;;;;;;;;;;;30.19;39.84;99925.94;6155496;23;19928;-89
2023/07/06 12:13:42;;;;;;;;;;;;;;;29.91;40.59;99927.25;6154468;23;20052;-89
2023/07/06 12:16:15;;;;;;;;;;;;;;;29.93;41.52;99925.59;6127936;23;19921;-89
2023/07/06 12:22:32;;;;;;;;;;;;;;;30.44;38.69;99914.16;6064885;23;19985;-90
2023/07/06 12:24:59;;;;;;;;;;;;;;;30.50;38.43;99905.97;6066104;23;19921;-90
2023/07/06 12:27:27;;;;;;;;;;;;;;;30.67;38.76;99905.63;6016787;23;20386;-89
2023/07/06 12:36:42;;;;;;;;;;;;;;;30.67;38.54;99905.63;6037549;23;20236;-90
2023/07/06 12:39:09;;;;;;;;;;;;;;;30.41;38.95;99906.56;6069794;23;19933;-89
2023/07/06 12:41:36;;;;;;;;;;;;;;;30.46;38.58;99908.88;6050039;23;19929;-89
2023/07/06 12:44:17;;;;;;;;;;;;;;;30.57;38.69;99905.84;6150671;23;19920;-89
2023/07/06 12:46:51;;;;;;;;;;;;;;;30.85;37.88;99893.94;6151414;23;19927;-86
2023/07/06 12:49:22;;;;;;;;;;;;;;;31.07;37.83;99891.44;6183546;23;19920;-89
2023/07/06 12:51:56;;;;;;;;;;;;;;;31.21;35.73;99889.50;6154940;23;19920;-87
2023/07/06 12:54:23;;;;;;;;;;;;;;;31.39;35.92;99889.91;6180393;23;19920;-90
2023/07/06 12:56:58;;;;;;;;;;;;;;;31.45;35.06;99878.84;6177868;23;19920;-90
2023/07/06 12:59:24;;;;;;;;;;;;;;;31.54;36.08;99873.38;6177626;23;19924;-88
2023/07/06 13:01:52;;;;;;;;;;;;;;;31.71;36.30;99871.31;6127417;23;20266;-86
2023/07/06 13:04:18;;;;;;;;;;;;;;;31.82;36.62;99863.34;6155007;23;20516;-90
2023/07/06 13:06:48;;;;;;;;;;;;;;;31.65;35.50;99861.78;6158004;23;19924;-91
2023/07/06 13:09:18;;;;;;;;;;;;;;;31.74;36.08;99859.13;6159417;23;19924;-90
2023/07/06 13:11:48;;;;;;;;;;;;;;;31.85;37.28;99856.00;6159817;23;19920;-90
2023/07/06 13:14:16;;;;;;;;;;;;;;;31.98;36.84;99857.66;6156018;23;19967;-89
2023/07/06 13:16:45;;;;;;;;;;;;;;;31.95;35.31;99852.13;6126191;23;20703;-91
2023/07/06 13:19:15;;;;;;;;;;;;;;;32.11;36.64;99849.22;6130716;23;19920;-88
2023/07/06 13:21:42;;;;;;;;;;;;;;;32.29;36.63;99848.72;6175516;23;19920;-89
2023/07/06 13:24:11;;;;;;;;;;;;;;;32.38;34.57;99845.22;6154918;23;19920;-89
2023/07/06 13:26:39;;;;;;;;;;;;;;;32.38;35.40;99845.22;6126457;23;19916;-90
2023/07/06 13:29:10;;;;;;;;;;;;;;;32.36;37.27;99847.72;6106619;23;19959;-91
2023/07/06 13:31:36;;;;;;;;;;;;;;;32.50;35.46;99847.31;6184713;23;19916;-91
2023/07/06 13:34:02;;;;;;;;;;;;;;;32.54;36.55;99841.56;6153672;23;19924;-90
2023/07/06 13:36:32;;;;;;;;;;;;;;;32.67;35.90;99842.34;6184029;23;20234;-92
2023/07/06 13:38:58;;;;;;;;;;;;;;;32.55;36.38;99843.13;6167963;23;19916;-91
2023/07/06 13:41:28;;;;;;;;;;;;;;;32.48;35.16;99825.16;6155572;23;19920;-91
2023/07/06 13:43:55;;;;;;;;;;;;;;;32.59;35.37;99824.81;6128534;23;19934;-91
2023/07/06 13:46:34;;;;;;;;;;;;;;;32.49;35.89;99823.09;6130630;23;19920;-90
2023/07/06 13:52:14;;;;;;;;;;;;;;;32.34;34.87;99822.69;6153046;23;20336;-91
2023/07/06 13:54:41;;;;;;;;;;;;;;;31.93;35.94;99818.63;6195124;23;19994;-88
2023/07/06 13:57:08;;;;;;;;;;;;;;;31.80;36.35;99823.44;6181477;23;19950;-88
2023/07/06 13:59:37;;;;;;;;;;;;;;;31.76;37.48;99815.03;6226458;23;19935;-88
2023/07/06 14:02:04;;;;;;;;;;;;;;;31.88;37.13;99810.69;6205913;23;19919;-90
2023/07/06 14:04:30;;;;;;;;;;;;;;;31.76;36.42;99812.22;6129485;23;19923;-90
2023/07/06 14:06:59;;;;;;;;;;;;;;;31.27;36.61;99814.31;6204057;23;19904;-88
2023/07/06 14:09:26;;;;;;;;;;;;;;;31.07;38.09;99808.75;6236458;23;19920;-89
2023/07/06 14:11:52;;;;;;;;;;;;;;;30.94;38.14;99811.47;6186840;23;19930;-87
2023/07/06 14:14:34;;;;;;;;;;;;;;;31.01;39.35;99804.88;6185413;23;19942;-91
2023/07/06 14:17:03;;;;;;;;;;;;;;;30.91;39.44;99806.72;6203265;23;19896;-89
2023/07/06 14:19:29;;;;;;;;;;;;;;;30.68;38.89;99816.09;6151008;23;20334;-88
2023/07/06 14:21:56;;;;;;;;;;;;;;;30.40;39.12;99809.88;6228848;23;19935;-91
2023/07/06 14:27:13;;;;;;;;;;;;;;;30.15;39.57;99807.53;6083065;23;20012;-90
2023/07/06 14:29:44;;;;;;;;;;;;;;;30.09;39.20;99797.22;6092745;23;19905;-89
2023/07/06 14:32:15;;;;;;;;;;;;;;;30.32;39.10;99804.81;6093794;23;19920;-91
2023/07/06 14:34:44;;;;;;;;;;;;;;;30.24;39.55;99807.00;6064707;23;19926;-91
2023/07/06 14:37:11;;;;;;;;;;;;;;;30.29;39.36;99805.69;6090014;23;19928;-88
2023/07/06 14:39:36;;;;;;;;;;;;;;;30.59;40.03;99808.22;6056597;23;19965;-91
2023/07/06 14:42:04;;;;;;;;;;;;;;;30.74;38.85;99802.25;6081916;23;19921;-91
2023/07/06 14:44:31;;;;;;;;;;;;;;;30.75;39.85;99803.84;6080602;23;20004;-94
2023/07/06 14:46:57;;;;;;;;;;;;;;;30.81;39.78;99802.91;6059399;23;19949;-89
2023/07/06 14:49:23;;;;;;;;;;;;;;;30.73;39.26;99803.47;6077033;23;19928;-88
2023/07/06 14:51:50;;;;;;;;;;;;;;;30.80;40.35;99797.72;6074410;23;20000;-91
2023/07/06 14:54:17;;;;;;;;;;;;;;;30.85;41.48;99794.34;6074572;23;20351;-90
2023/07/06 14:56:43;;;;;;;;;;;;;;;30.95;40.61;99795.31;6075739;23;19928;-90
2023/07/06 14:59:09;;;;;;;;;;;;;;;30.91;41.10;99795.41;6073636;23;20255;-89
2023/07/06 15:01:35;;;;;;;;;;;;;;;30.83;39.59;99806.09;6053549;23;19925;-91
2023/07/06 15:04:01;;;;;;;;;;;;;;;30.79;39.16;99798.94;6052642;23;19921;-93
2023/07/06 15:06:27;;;;;;;;;;;;;;;30.55;40.06;99799.03;6052734;23;20352;-91
2023/07/06 15:08:53;;;;;;;;;;;;;;;30.53;40.92;99790.25;6051514;23;20370;-92
2023/07/06 15:11:21;;;;;;;;;;;;;;;30.57;40.70;99782.47;6099237;23;19922;-92
2023/07/06 15:13:47;;;;;;;;;;;;;;;30.66;41.47;99788.31;6050760;23;20000;-90
2023/07/06 15:16:13;;;;;;;;;;;;;;;30.61;40.15;99788.03;6098392;23;19921;-92
2023/07/06 15:18:40;;;;;;;;;;;;;;;30.52;40.74;99788.63;6051077;23;19918;-91
2023/07/06 15:21:06;;;;;;;;;;;;;;;30.43;40.38;99786.44;6078021;23;19933;-90
2023/07/06 15:23:33;;;;;;;;;;;;;;;30.34;40.82;99777.75;6030410;23;19945;-89
2023/07/06 15:25:59;;;;;;;;;;;;;;;30.24;40.29;99783.66;6046963;23;19926;-92
2023/07/06 15:28:25;;;;;;;;;;;;;;;30.13;40.71;99776.19;6049174;23;19926;-91
2023/07/06 15:30:51;;;;;;;;;;;;;;;30.10;41.04;99770.59;6053841;23;19933;-93
2023/07/06 15:33:20;;;;;;;;;;;;;;;30.03;41.35;99765.09;6056354;23;19922;-92